KHHG

Huntington Municipal Airport

Huntington, Indiana, USA
METAR KHHG 230035Z AUTO 00000KT 10SM CLR 09/04 A3005 RMK AO2 T00900043
Observed Flight Rules
Oct-23 @ 00:35 UTC (34 minutes ago) Visual Flight Rules
Visibility Clouds
10 miles
  • Clear skies
Temperatures Readings
Current 9°C / 48°F
Dewpoint 4°C / 39°F
Humidity 71%
Altimeter 30.05" Hg
Pressure 1018 hPa
Elevation 246
METAR KHHG 230035Z AUTO 00000KT 10SM CLR 09/04 A3005 RMK AO2 T00900043
Observed Flight Rules
Oct-23 @ 00:35 UTC
(34 minutes ago)
VFR
Clouds
  • Clear skies
Temperature Dewpoint
9°C / 48°F 4°C / 39°F
Humidity Altimeter Pressure
71% 30.05" Hg 1018 hPa